sensor_id;sensor_type;location;lat;lon;timestamp;P1;durP1;ratioP1;P2;durP2;ratioP2
11187;SDS011;5650;52.700;7.306;2024-02-21T00:01:37;30.08;;;16.85;;
11187;SDS011;5650;52.700;7.306;2024-02-21T00:04:07;36.88;;;18.42;;
11187;SDS011;5650;52.700;7.306;2024-02-21T00:06:34;36.85;;;17.85;;
11187;SDS011;5650;52.700;7.306;2024-02-21T00:09:01;30.75;;;17.13;;
11187;SDS011;5650;52.700;7.306;2024-02-21T00:11:29;38.08;;;17.80;;
11187;SDS011;5650;52.700;7.306;2024-02-21T00:13:57;40.15;;;18.55;;
11187;SDS011;5650;52.700;7.306;2024-02-21T00:16:24;35.40;;;17.75;;
11187;SDS011;5650;52.700;7.306;2024-02-21T00:18:52;37.72;;;17.77;;
11187;SDS011;5650;52.700;7.306;2024-02-21T00:21:22;31.88;;;17.30;;
11187;SDS011;5650;52.700;7.306;2024-02-21T00:23:52;36.90;;;19.23;;
11187;SDS011;5650;52.700;7.306;2024-02-21T00:26:22;33.17;;;18.75;;
11187;SDS011;5650;52.700;7.306;2024-02-21T00:28:50;33.72;;;18.05;;
11187;SDS011;5650;52.700;7.306;2024-02-21T00:31:24;36.75;;;18.52;;
11187;SDS011;5650;52.700;7.306;2024-02-21T00:33:57;36.72;;;18.38;;
11187;SDS011;5650;52.700;7.306;2024-02-21T00:36:27;32.08;;;17.95;;
11187;SDS011;5650;52.700;7.306;2024-02-21T00:38:57;33.42;;;17.88;;
11187;SDS011;5650;52.700;7.306;2024-02-21T00:41:25;39.53;;;19.98;;
11187;SDS011;5650;52.700;7.306;2024-02-21T00:43:52;32.78;;;17.73;;
11187;SDS011;5650;52.700;7.306;2024-02-21T00:46:29;36.83;;;18.05;;
11187;SDS011;5650;52.700;7.306;2024-02-21T00:48:56;35.00;;;18.70;;
11187;SDS011;5650;52.700;7.306;2024-02-21T00:51:32;30.45;;;17.00;;
11187;SDS011;5650;52.700;7.306;2024-02-21T00:54:02;36.70;;;17.95;;
11187;SDS011;5650;52.700;7.306;2024-02-21T00:56:32;38.70;;;18.70;;
11187;SDS011;5650;52.700;7.306;2024-02-21T00:58:59;38.67;;;19.25;;
11187;SDS011;5650;52.700;7.306;2024-02-21T01:01:38;32.25;;;17.17;;
11187;SDS011;5650;52.700;7.306;2024-02-21T01:04:07;35.08;;;18.80;;
11187;SDS011;5650;52.700;7.306;2024-02-21T01:06:37;36.72;;;18.70;;
11187;SDS011;5650;52.700;7.306;2024-02-21T01:09:05;31.85;;;17.58;;
11187;SDS011;5650;52.700;7.306;2024-02-21T01:11:38;34.80;;;17.75;;
11187;SDS011;5650;52.700;7.306;2024-02-21T01:14:05;36.03;;;19.35;;
11187;SDS011;5650;52.700;7.306;2024-02-21T01:16:32;34.60;;;17.63;;
11187;SDS011;5650;52.700;7.306;2024-02-21T01:19:04;36.58;;;18.02;;
11187;SDS011;5650;52.700;7.306;2024-02-21T01:21:31;36.08;;;18.80;;
11187;SDS011;5650;52.700;7.306;2024-02-21T01:24:01;31.70;;;18.38;;
11187;SDS011;5650;52.700;7.306;2024-02-21T01:26:31;31.90;;;18.90;;
11187;SDS011;5650;52.700;7.306;2024-02-21T01:29:02;38.05;;;18.77;;
11187;SDS011;5650;52.700;7.306;2024-02-21T01:31:29;38.20;;;19.17;;
11187;SDS011;5650;52.700;7.306;2024-02-21T01:33:58;29.30;;;16.88;;
11187;SDS011;5650;52.700;7.306;2024-02-21T01:36:29;33.90;;;18.55;;
11187;SDS011;5650;52.700;7.306;2024-02-21T01:38:56;36.97;;;18.65;;
11187;SDS011;5650;52.700;7.306;2024-02-21T01:41:26;29.58;;;17.67;;
11187;SDS011;5650;52.700;7.306;2024-02-21T01:43:59;29.73;;;17.90;;
11187;SDS011;5650;52.700;7.306;2024-02-21T01:46:26;29.75;;;17.45;;
11187;SDS011;5650;52.700;7.306;2024-02-21T01:48:59;31.15;;;17.33;;
11187;SDS011;5650;52.700;7.306;2024-02-21T01:51:31;47.17;;;17.15;;
11187;SDS011;5650;52.700;7.306;2024-02-21T01:54:01;31.98;;;17.33;;
11187;SDS011;5650;52.700;7.306;2024-02-21T01:56:29;29.98;;;17.23;;
11187;SDS011;5650;52.700;7.306;2024-02-21T01:58:57;33.72;;;16.80;;
11187;SDS011;5650;52.700;7.306;2024-02-21T02:01:31;27.85;;;16.40;;
11187;SDS011;5650;52.700;7.306;2024-02-21T02:04:01;36.47;;;17.48;;
11187;SDS011;5650;52.700;7.306;2024-02-21T02:06:31;32.33;;;17.33;;
11187;SDS011;5650;52.700;7.306;2024-02-21T02:08:59;27.70;;;17.05;;
11187;SDS011;5650;52.700;7.306;2024-02-21T02:11:26;29.40;;;16.65;;
11187;SDS011;5650;52.700;7.306;2024-02-21T02:13:56;26.33;;;16.15;;
11187;SDS011;5650;52.700;7.306;2024-02-21T02:19:14;36.17;;;16.95;;
11187;SDS011;5650;52.700;7.306;2024-02-21T02:21:44;29.58;;;16.13;;
11187;SDS011;5650;52.700;7.306;2024-02-21T02:24:19;28.02;;;15.60;;
11187;SDS011;5650;52.700;7.306;2024-02-21T02:26:47;26.98;;;16.15;;
11187;SDS011;5650;52.700;7.306;2024-02-21T02:29:14;30.52;;;15.60;;
11187;SDS011;5650;52.700;7.306;2024-02-21T02:31:45;25.85;;;15.25;;
11187;SDS011;5650;52.700;7.306;2024-02-21T02:34:15;29.42;;;16.45;;
11187;SDS011;5650;52.700;7.306;2024-02-21T02:36:42;25.60;;;14.77;;
11187;SDS011;5650;52.700;7.306;2024-02-21T02:42:14;31.02;;;14.93;;
11187;SDS011;5650;52.700;7.306;2024-02-21T02:44:41;30.02;;;15.20;;
11187;SDS011;5650;52.700;7.306;2024-02-21T02:47:11;25.42;;;14.63;;
11187;SDS011;5650;52.700;7.306;2024-02-21T02:49:38;26.23;;;15.43;;
11187;SDS011;5650;52.700;7.306;2024-02-21T02:52:11;31.02;;;15.10;;
11187;SDS011;5650;52.700;7.306;2024-02-21T02:54:46;28.05;;;15.85;;
11187;SDS011;5650;52.700;7.306;2024-02-21T02:57:17;33.65;;;16.75;;
11187;SDS011;5650;52.700;7.306;2024-02-21T02:59:47;31.35;;;16.83;;
11187;SDS011;5650;52.700;7.306;2024-02-21T03:02:14;30.42;;;16.98;;
11187;SDS011;5650;52.700;7.306;2024-02-21T03:04:41;35.20;;;17.38;;
11187;SDS011;5650;52.700;7.306;2024-02-21T03:07:09;28.85;;;16.95;;
11187;SDS011;5650;52.700;7.306;2024-02-21T03:09:36;28.25;;;17.00;;
11187;SDS011;5650;52.700;7.306;2024-02-21T03:12:09;25.83;;;17.25;;
11187;SDS011;5650;52.700;7.306;2024-02-21T03:14:36;29.48;;;17.60;;
11187;SDS011;5650;52.700;7.306;2024-02-21T03:17:09;23.63;;;15.80;;
11187;SDS011;5650;52.700;7.306;2024-02-21T03:19:36;31.92;;;17.08;;
11187;SDS011;5650;52.700;7.306;2024-02-21T03:22:09;28.50;;;18.38;;
11187;SDS011;5650;52.700;7.306;2024-02-21T03:24:37;31.80;;;17.75;;
11187;SDS011;5650;52.700;7.306;2024-02-21T03:27:08;29.65;;;17.00;;
11187;SDS011;5650;52.700;7.306;2024-02-21T03:29:35;31.10;;;17.65;;
11187;SDS011;5650;52.700;7.306;2024-02-21T03:32:03;32.40;;;17.95;;
11187;SDS011;5650;52.700;7.306;2024-02-21T03:34:33;23.50;;;17.38;;
11187;SDS011;5650;52.700;7.306;2024-02-21T03:37:06;28.63;;;18.13;;
11187;SDS011;5650;52.700;7.306;2024-02-21T03:39:33;31.05;;;18.23;;
11187;SDS011;5650;52.700;7.306;2024-02-21T03:42:02;26.85;;;18.10;;
11187;SDS011;5650;52.700;7.306;2024-02-21T03:44:31;28.15;;;18.55;;
11187;SDS011;5650;52.700;7.306;2024-02-21T03:46:59;28.58;;;18.30;;
11187;SDS011;5650;52.700;7.306;2024-02-21T03:49:26;26.27;;;17.48;;
11187;SDS011;5650;52.700;7.306;2024-02-21T03:51:56;31.65;;;18.30;;
11187;SDS011;5650;52.700;7.306;2024-02-21T03:54:32;31.75;;;18.25;;
11187;SDS011;5650;52.700;7.306;2024-02-21T03:56:59;32.38;;;18.48;;
11187;SDS011;5650;52.700;7.306;2024-02-21T03:59:34;28.80;;;17.20;;
11187;SDS011;5650;52.700;7.306;2024-02-21T04:02:05;34.83;;;18.35;;
11187;SDS011;5650;52.700;7.306;2024-02-21T04:04:35;28.65;;;17.58;;
11187;SDS011;5650;52.700;7.306;2024-02-21T04:07:11;33.00;;;18.08;;
11187;SDS011;5650;52.700;7.306;2024-02-21T04:09:38;28.80;;;17.10;;
11187;SDS011;5650;52.700;7.306;2024-02-21T04:12:05;30.23;;;18.63;;
11187;SDS011;5650;52.700;7.306;2024-02-21T04:14:38;30.23;;;18.30;;
11187;SDS011;5650;52.700;7.306;2024-02-21T04:17:06;31.75;;;17.92;;
11187;SDS011;5650;52.700;7.306;2024-02-21T04:19:45;28.15;;;17.60;;
11187;SDS011;5650;52.700;7.306;2024-02-21T04:22:15;27.40;;;17.60;;
11187;SDS011;5650;52.700;7.306;2024-02-21T04:24:45;31.27;;;19.15;;
11187;SDS011;5650;52.700;7.306;2024-02-21T04:27:13;27.73;;;16.73;;
11187;SDS011;5650;52.700;7.306;2024-02-21T04:29:41;35.85;;;19.13;;
11187;SDS011;5650;52.700;7.306;2024-02-21T04:32:08;26.17;;;16.23;;
11187;SDS011;5650;52.700;7.306;2024-02-21T04:34:35;32.88;;;17.58;;
11187;SDS011;5650;52.700;7.306;2024-02-21T04:37:03;28.40;;;18.50;;
11187;SDS011;5650;52.700;7.306;2024-02-21T04:39:33;28.02;;;17.27;;
11187;SDS011;5650;52.700;7.306;2024-02-21T04:42:03;36.50;;;18.20;;
11187;SDS011;5650;52.700;7.306;2024-02-21T04:44:31;25.67;;;16.52;;
11187;SDS011;5650;52.700;7.306;2024-02-21T04:46:59;27.42;;;16.92;;
11187;SDS011;5650;52.700;7.306;2024-02-21T04:49:29;30.17;;;18.17;;
11187;SDS011;5650;52.700;7.306;2024-02-21T04:51:56;27.67;;;17.30;;
11187;SDS011;5650;52.700;7.306;2024-02-21T04:54:24;25.38;;;17.15;;
11187;SDS011;5650;52.700;7.306;2024-02-21T04:56:51;24.58;;;16.98;;
11187;SDS011;5650;52.700;7.306;2024-02-21T04:59:24;25.08;;;17.08;;
11187;SDS011;5650;52.700;7.306;2024-02-21T05:01:54;28.27;;;17.85;;
11187;SDS011;5650;52.700;7.306;2024-02-21T05:04:23;27.92;;;16.45;;
11187;SDS011;5650;52.700;7.306;2024-02-21T05:06:50;29.85;;;16.85;;
11187;SDS011;5650;52.700;7.306;2024-02-21T05:09:32;27.90;;;17.35;;
11187;SDS011;5650;52.700;7.306;2024-02-21T05:11:59;34.45;;;17.10;;
11187;SDS011;5650;52.700;7.306;2024-02-21T05:14:26;29.08;;;17.73;;
11187;SDS011;5650;52.700;7.306;2024-02-21T05:16:53;32.72;;;17.45;;
11187;SDS011;5650;52.700;7.306;2024-02-21T05:19:20;31.23;;;17.00;;
11187;SDS011;5650;52.700;7.306;2024-02-21T05:21:52;37.28;;;18.13;;
11187;SDS011;5650;52.700;7.306;2024-02-21T05:24:19;29.35;;;17.52;;
11187;SDS011;5650;52.700;7.306;2024-02-21T05:26:47;29.33;;;17.48;;
11187;SDS011;5650;52.700;7.306;2024-02-21T05:29:14;28.42;;;16.55;;
11187;SDS011;5650;52.700;7.306;2024-02-21T05:32:01;33.70;;;16.55;;
11187;SDS011;5650;52.700;7.306;2024-02-21T05:34:32;30.38;;;16.63;;
11187;SDS011;5650;52.700;7.306;2024-02-21T05:37:02;32.72;;;16.67;;
11187;SDS011;5650;52.700;7.306;2024-02-21T05:39:29;32.40;;;16.52;;
11187;SDS011;5650;52.700;7.306;2024-02-21T05:42:05;25.67;;;17.13;;
11187;SDS011;5650;52.700;7.306;2024-02-21T05:44:33;27.83;;;16.75;;
11187;SDS011;5650;52.700;7.306;2024-02-21T05:47:00;30.17;;;16.05;;
11187;SDS011;5650;52.700;7.306;2024-02-21T05:49:27;31.17;;;17.92;;
11187;SDS011;5650;52.700;7.306;2024-02-21T05:51:59;30.42;;;16.65;;
11187;SDS011;5650;52.700;7.306;2024-02-21T05:54:32;34.30;;;16.65;;
11187;SDS011;5650;52.700;7.306;2024-02-21T05:56:59;31.63;;;15.55;;
11187;SDS011;5650;52.700;7.306;2024-02-21T05:59:26;30.33;;;16.55;;
11187;SDS011;5650;52.700;7.306;2024-02-21T06:02:12;25.95;;;16.00;;
11187;SDS011;5650;52.700;7.306;2024-02-21T06:04:45;29.23;;;15.55;;
11187;SDS011;5650;52.700;7.306;2024-02-21T06:07:14;36.75;;;16.73;;
11187;SDS011;5650;52.700;7.306;2024-02-21T06:09:41;31.58;;;15.43;;
11187;SDS011;5650;52.700;7.306;2024-02-21T06:12:09;29.92;;;14.85;;
11187;SDS011;5650;52.700;7.306;2024-02-21T06:14:36;27.00;;;15.18;;
11187;SDS011;5650;52.700;7.306;2024-02-21T06:17:06;26.95;;;15.90;;
11187;SDS011;5650;52.700;7.306;2024-02-21T06:19:39;35.08;;;14.52;;
11187;SDS011;5650;52.700;7.306;2024-02-21T06:22:14;28.98;;;15.75;;
11187;SDS011;5650;52.700;7.306;2024-02-21T06:24:44;31.35;;;15.52;;
11187;SDS011;5650;52.700;7.306;2024-02-21T06:27:11;33.17;;;16.70;;
11187;SDS011;5650;52.700;7.306;2024-02-21T06:29:45;28.23;;;15.43;;
11187;SDS011;5650;52.700;7.306;2024-02-21T06:32:12;29.27;;;15.95;;
11187;SDS011;5650;52.700;7.306;2024-02-21T06:34:57;33.88;;;16.50;;
11187;SDS011;5650;52.700;7.306;2024-02-21T06:44:10;33.67;;;16.48;;
11187;SDS011;5650;52.700;7.306;2024-02-21T06:46:37;29.60;;;16.48;;
11187;SDS011;5650;52.700;7.306;2024-02-21T06:49:04;31.25;;;16.42;;
11187;SDS011;5650;52.700;7.306;2024-02-21T06:51:31;27.95;;;16.92;;
11187;SDS011;5650;52.700;7.306;2024-02-21T06:54:10;29.63;;;16.48;;
11187;SDS011;5650;52.700;7.306;2024-02-21T06:56:40;30.50;;;16.80;;
11187;SDS011;5650;52.700;7.306;2024-02-21T06:59:12;32.53;;;17.13;;
11187;SDS011;5650;52.700;7.306;2024-02-21T07:01:47;33.38;;;17.00;;
11187;SDS011;5650;52.700;7.306;2024-02-21T07:04:15;33.67;;;16.52;;
11187;SDS011;5650;52.700;7.306;2024-02-21T07:09:44;35.10;;;16.48;;
11187;SDS011;5650;52.700;7.306;2024-02-21T07:12:14;30.40;;;15.77;;
11187;SDS011;5650;52.700;7.306;2024-02-21T07:14:44;29.95;;;15.98;;
11187;SDS011;5650;52.700;7.306;2024-02-21T07:17:11;29.40;;;16.95;;
11187;SDS011;5650;52.700;7.306;2024-02-21T07:23:01;30.80;;;15.90;;
11187;SDS011;5650;52.700;7.306;2024-02-21T07:25:28;25.27;;;15.70;;
11187;SDS011;5650;52.700;7.306;2024-02-21T07:27:58;25.35;;;14.70;;
11187;SDS011;5650;52.700;7.306;2024-02-21T07:30:30;31.77;;;15.30;;
11187;SDS011;5650;52.700;7.306;2024-02-21T07:32:57;19.45;;;14.50;;
11187;SDS011;5650;52.700;7.306;2024-02-21T07:35:24;30.58;;;16.02;;
11187;SDS011;5650;52.700;7.306;2024-02-21T07:38:04;26.45;;;15.80;;
11187;SDS011;5650;52.700;7.306;2024-02-21T07:40:32;32.50;;;15.23;;
11187;SDS011;5650;52.700;7.306;2024-02-21T07:43:02;24.55;;;15.77;;
11187;SDS011;5650;52.700;7.306;2024-02-21T07:45:41;28.95;;;14.38;;
11187;SDS011;5650;52.700;7.306;2024-02-21T07:48:20;24.73;;;14.48;;
11187;SDS011;5650;52.700;7.306;2024-02-21T07:50:49;26.98;;;15.30;;
11187;SDS011;5650;52.700;7.306;2024-02-21T07:53:24;27.70;;;15.13;;
11187;SDS011;5650;52.700;7.306;2024-02-21T07:55:58;22.13;;;14.55;;
11187;SDS011;5650;52.700;7.306;2024-02-21T07:58:26;20.85;;;14.60;;
11187;SDS011;5650;52.700;7.306;2024-02-21T08:00:54;24.15;;;14.35;;
11187;SDS011;5650;52.700;7.306;2024-02-21T08:03:22;23.27;;;13.23;;
11187;SDS011;5650;52.700;7.306;2024-02-21T08:05:54;24.30;;;13.82;;
11187;SDS011;5650;52.700;7.306;2024-02-21T08:08:25;23.15;;;14.10;;
11187;SDS011;5650;52.700;7.306;2024-02-21T08:11:00;25.45;;;13.82;;
11187;SDS011;5650;52.700;7.306;2024-02-21T08:13:30;23.15;;;14.13;;
11187;SDS011;5650;52.700;7.306;2024-02-21T08:15:58;21.33;;;13.27;;
11187;SDS011;5650;52.700;7.306;2024-02-21T08:18:26;21.58;;;13.57;;
11187;SDS011;5650;52.700;7.306;2024-02-21T08:20:53;23.00;;;12.82;;
11187;SDS011;5650;52.700;7.306;2024-02-21T08:23:26;21.13;;;13.65;;
11187;SDS011;5650;52.700;7.306;2024-02-21T08:25:53;22.08;;;12.82;;
11187;SDS011;5650;52.700;7.306;2024-02-21T08:28:21;22.60;;;13.20;;
11187;SDS011;5650;52.700;7.306;2024-02-21T08:30:51;26.30;;;12.70;;
11187;SDS011;5650;52.700;7.306;2024-02-21T08:33:19;26.38;;;13.40;;
11187;SDS011;5650;52.700;7.306;2024-02-21T08:35:53;16.92;;;10.77;;
11187;SDS011;5650;52.700;7.306;2024-02-21T08:38:20;18.08;;;11.32;;
11187;SDS011;5650;52.700;7.306;2024-02-21T08:40:53;19.38;;;11.18;;
11187;SDS011;5650;52.700;7.306;2024-02-21T08:43:23;22.20;;;11.68;;
11187;SDS011;5650;52.700;7.306;2024-02-21T08:45:57;22.58;;;11.02;;
11187;SDS011;5650;52.700;7.306;2024-02-21T08:48:26;21.63;;;11.38;;
11187;SDS011;5650;52.700;7.306;2024-02-21T08:50:56;22.45;;;11.82;;
11187;SDS011;5650;52.700;7.306;2024-02-21T08:53:23;20.70;;;11.90;;
11187;SDS011;5650;52.700;7.306;2024-02-21T08:56:06;25.23;;;11.82;;
11187;SDS011;5650;52.700;7.306;2024-02-21T08:58:34;19.20;;;10.85;;
11187;SDS011;5650;52.700;7.306;2024-02-21T09:01:05;16.23;;;10.82;;
11187;SDS011;5650;52.700;7.306;2024-02-21T09:03:39;22.42;;;11.48;;
11187;SDS011;5650;52.700;7.306;2024-02-21T09:06:06;21.02;;;10.27;;
11187;SDS011;5650;52.700;7.306;2024-02-21T09:08:34;30.05;;;11.57;;
11187;SDS011;5650;52.700;7.306;2024-02-21T09:11:02;18.10;;;11.13;;
11187;SDS011;5650;52.700;7.306;2024-02-21T09:13:33;21.25;;;12.10;;
11187;SDS011;5650;52.700;7.306;2024-02-21T09:16:02;25.58;;;10.95;;
11187;SDS011;5650;52.700;7.306;2024-02-21T09:18:34;23.35;;;10.93;;
11187;SDS011;5650;52.700;7.306;2024-02-21T09:21:05;19.88;;;11.63;;
11187;SDS011;5650;52.700;7.306;2024-02-21T09:23:32;25.77;;;12.23;;
11187;SDS011;5650;52.700;7.306;2024-02-21T09:25:59;25.38;;;11.85;;
11187;SDS011;5650;52.700;7.306;2024-02-21T09:28:29;18.10;;;10.38;;
11187;SDS011;5650;52.700;7.306;2024-02-21T09:30:56;16.83;;;10.82;;
11187;SDS011;5650;52.700;7.306;2024-02-21T09:33:29;16.58;;;10.80;;
11187;SDS011;5650;52.700;7.306;2024-02-21T09:35:56;21.88;;;11.32;;
11187;SDS011;5650;52.700;7.306;2024-02-21T09:38:25;18.88;;;10.27;;
11187;SDS011;5650;52.700;7.306;2024-02-21T09:40:53;18.73;;;10.18;;
11187;SDS011;5650;52.700;7.306;2024-02-21T09:43:25;21.67;;;10.80;;
11187;SDS011;5650;52.700;7.306;2024-02-21T09:45:53;20.65;;;11.25;;
11187;SDS011;5650;52.700;7.306;2024-02-21T09:48:25;20.58;;;9.98;;
11187;SDS011;5650;52.700;7.306;2024-02-21T09:50:57;22.75;;;10.32;;
11187;SDS011;5650;52.700;7.306;2024-02-21T09:53:27;18.02;;;9.88;;
11187;SDS011;5650;52.700;7.306;2024-02-21T09:55:54;20.40;;;10.30;;
11187;SDS011;5650;52.700;7.306;2024-02-21T09:58:28;19.52;;;11.15;;
11187;SDS011;5650;52.700;7.306;2024-02-21T10:00:56;20.50;;;9.90;;
11187;SDS011;5650;52.700;7.306;2024-02-21T10:03:23;19.88;;;9.38;;
11187;SDS011;5650;52.700;7.306;2024-02-21T10:05:50;19.83;;;9.07;;
11187;SDS011;5650;52.700;7.306;2024-02-21T10:08:30;14.38;;;8.60;;
11187;SDS011;5650;52.700;7.306;2024-02-21T10:10:57;18.25;;;9.43;;
11187;SDS011;5650;52.700;7.306;2024-02-21T10:13:30;21.45;;;9.57;;
11187;SDS011;5650;52.700;7.306;2024-02-21T10:16:03;18.50;;;8.25;;
11187;SDS011;5650;52.700;7.306;2024-02-21T10:18:34;19.90;;;8.70;;
11187;SDS011;5650;52.700;7.306;2024-02-21T10:21:08;19.52;;;7.97;;
11187;SDS011;5650;52.700;7.306;2024-02-21T10:23:46;15.65;;;7.93;;
11187;SDS011;5650;52.700;7.306;2024-02-21T10:26:17;16.80;;;7.38;;
11187;SDS011;5650;52.700;7.306;2024-02-21T10:28:46;14.93;;;7.80;;
11187;SDS011;5650;52.700;7.306;2024-02-21T10:31:22;14.75;;;7.18;;
11187;SDS011;5650;52.700;7.306;2024-02-21T10:33:58;13.75;;;7.68;;
11187;SDS011;5650;52.700;7.306;2024-02-21T10:36:28;19.73;;;7.72;;
11187;SDS011;5650;52.700;7.306;2024-02-21T10:39:05;18.10;;;6.95;;
11187;SDS011;5650;52.700;7.306;2024-02-21T10:41:34;11.40;;;6.68;;
11187;SDS011;5650;52.700;7.306;2024-02-21T10:44:04;17.65;;;6.90;;
11187;SDS011;5650;52.700;7.306;2024-02-21T10:46:35;16.83;;;6.53;;
11187;SDS011;5650;52.700;7.306;2024-02-21T10:49:07;17.80;;;7.15;;
11187;SDS011;5650;52.700;7.306;2024-02-21T10:51:43;18.10;;;6.82;;
11187;SDS011;5650;52.700;7.306;2024-02-21T10:54:23;15.63;;;7.18;;
11187;SDS011;5650;52.700;7.306;2024-02-21T10:56:59;13.07;;;6.43;;
11187;SDS011;5650;52.700;7.306;2024-02-21T10:59:31;15.15;;;5.88;;
11187;SDS011;5650;52.700;7.306;2024-02-21T11:01:59;12.60;;;6.25;;
11187;SDS011;5650;52.700;7.306;2024-02-21T11:04:28;10.90;;;6.25;;
11187;SDS011;5650;52.700;7.306;2024-02-21T11:06:56;15.32;;;6.43;;
11187;SDS011;5650;52.700;7.306;2024-02-21T11:09:33;13.77;;;6.68;;
11187;SDS011;5650;52.700;7.306;2024-02-21T11:12:04;13.38;;;6.10;;
11187;SDS011;5650;52.700;7.306;2024-02-21T11:14:37;11.70;;;6.18;;
11187;SDS011;5650;52.700;7.306;2024-02-21T11:19:57;12.95;;;6.00;;
11187;SDS011;5650;52.700;7.306;2024-02-21T11:22:26;12.55;;;6.00;;
11187;SDS011;5650;52.700;7.306;2024-02-21T11:25:07;12.00;;;6.13;;
11187;SDS011;5650;52.700;7.306;2024-02-21T11:27:36;13.88;;;6.35;;
11187;SDS011;5650;52.700;7.306;2024-02-21T11:30:11;11.13;;;6.18;;
11187;SDS011;5650;52.700;7.306;2024-02-21T11:32:50;14.27;;;5.43;;
11187;SDS011;5650;52.700;7.306;2024-02-21T11:35:32;11.15;;;5.93;;
11187;SDS011;5650;52.700;7.306;2024-02-21T11:38:09;10.93;;;5.78;;
11187;SDS011;5650;52.700;7.306;2024-02-21T11:40:41;12.13;;;6.13;;
11187;SDS011;5650;52.700;7.306;2024-02-21T11:43:10;12.05;;;6.13;;
11187;SDS011;5650;52.700;7.306;2024-02-21T11:45:38;10.02;;;6.63;;
11187;SDS011;5650;52.700;7.306;2024-02-21T11:48:06;10.07;;;6.07;;
11187;SDS011;5650;52.700;7.306;2024-02-21T11:50:34;10.27;;;6.32;;
11187;SDS011;5650;52.700;7.306;2024-02-21T11:53:01;12.23;;;6.15;;
11187;SDS011;5650;52.700;7.306;2024-02-21T11:55:29;11.02;;;6.20;;
11187;SDS011;5650;52.700;7.306;2024-02-21T11:57:57;10.30;;;5.75;;
11187;SDS011;5650;52.700;7.306;2024-02-21T12:00:25;13.35;;;6.25;;
11187;SDS011;5650;52.700;7.306;2024-02-21T12:02:52;10.00;;;6.28;;
11187;SDS011;5650;52.700;7.306;2024-02-21T12:05:26;10.73;;;5.68;;
11187;SDS011;5650;52.700;7.306;2024-02-21T12:07:54;9.55;;;5.25;;
11187;SDS011;5650;52.700;7.306;2024-02-21T12:10:23;7.70;;;5.55;;
11187;SDS011;5650;52.700;7.306;2024-02-21T12:12:52;10.25;;;5.63;;
11187;SDS011;5650;52.700;7.306;2024-02-21T12:15:24;8.88;;;5.25;;
11187;SDS011;5650;52.700;7.306;2024-02-21T12:17:51;11.55;;;5.07;;
11187;SDS011;5650;52.700;7.306;2024-02-21T12:20:20;8.35;;;5.25;;
11187;SDS011;5650;52.700;7.306;2024-02-21T12:22:48;12.35;;;5.70;;
11187;SDS011;5650;52.700;7.306;2024-02-21T12:25:17;11.48;;;5.45;;
11187;SDS011;5650;52.700;7.306;2024-02-21T12:27:45;9.65;;;5.47;;
11187;SDS011;5650;52.700;7.306;2024-02-21T12:30:12;9.93;;;4.97;;
11187;SDS011;5650;52.700;7.306;2024-02-21T12:32:41;10.95;;;4.85;;
11187;SDS011;5650;52.700;7.306;2024-02-21T12:35:08;7.55;;;4.20;;
11187;SDS011;5650;52.700;7.306;2024-02-21T12:37:35;9.15;;;4.43;;
11187;SDS011;5650;52.700;7.306;2024-02-21T12:40:04;8.68;;;4.18;;
11187;SDS011;5650;52.700;7.306;2024-02-21T12:42:32;7.68;;;3.67;;
11187;SDS011;5650;52.700;7.306;2024-02-21T12:44:59;7.13;;;3.33;;
11187;SDS011;5650;52.700;7.306;2024-02-21T12:47:28;7.18;;;4.20;;
11187;SDS011;5650;52.700;7.306;2024-02-21T12:49:57;9.15;;;4.10;;
11187;SDS011;5650;52.700;7.306;2024-02-21T12:52:24;7.18;;;3.28;;
11187;SDS011;5650;52.700;7.306;2024-02-21T12:54:51;7.20;;;3.65;;
11187;SDS011;5650;52.700;7.306;2024-02-21T12:57:21;7.47;;;3.33;;
11187;SDS011;5650;52.700;7.306;2024-02-21T12:59:48;6.22;;;2.70;;
11187;SDS011;5650;52.700;7.306;2024-02-21T13:02:16;4.30;;;2.38;;
11187;SDS011;5650;52.700;7.306;2024-02-21T13:04:43;6.57;;;3.45;;
11187;SDS011;5650;52.700;7.306;2024-02-21T13:07:12;6.78;;;2.60;;
11187;SDS011;5650;52.700;7.306;2024-02-21T13:09:39;4.65;;;2.35;;
11187;SDS011;5650;52.700;7.306;2024-02-21T13:12:07;5.53;;;2.70;;
11187;SDS011;5650;52.700;7.306;2024-02-21T13:14:34;7.18;;;2.40;;
11187;SDS011;5650;52.700;7.306;2024-02-21T13:17:04;5.20;;;2.72;;
11187;SDS011;5650;52.700;7.306;2024-02-21T13:19:37;9.93;;;3.58;;
11187;SDS011;5650;52.700;7.306;2024-02-21T13:22:06;6.53;;;3.00;;
11187;SDS011;5650;52.700;7.306;2024-02-21T13:24:35;5.45;;;2.83;;
11187;SDS011;5650;52.700;7.306;2024-02-21T13:27:02;9.73;;;3.70;;
11187;SDS011;5650;52.700;7.306;2024-02-21T13:29:30;9.38;;;3.47;;
11187;SDS011;5650;52.700;7.306;2024-02-21T13:34:33;6.85;;;3.70;;
11187;SDS011;5650;52.700;7.306;2024-02-21T13:37:03;9.10;;;4.03;;
11187;SDS011;5650;52.700;7.306;2024-02-21T13:39:32;7.93;;;3.95;;
11187;SDS011;5650;52.700;7.306;2024-02-21T13:42:04;8.68;;;4.32;;
11187;SDS011;5650;52.700;7.306;2024-02-21T13:44:32;9.73;;;3.97;;
11187;SDS011;5650;52.700;7.306;2024-02-21T13:46:59;7.97;;;4.15;;
11187;SDS011;5650;52.700;7.306;2024-02-21T13:49:36;7.32;;;3.92;;
11187;SDS011;5650;52.700;7.306;2024-02-21T13:52:04;9.80;;;4.00;;
11187;SDS011;5650;52.700;7.306;2024-02-21T13:54:31;10.07;;;4.40;;
11187;SDS011;5650;52.700;7.306;2024-02-21T13:57:05;8.48;;;4.00;;
11187;SDS011;5650;52.700;7.306;2024-02-21T13:59:36;7.82;;;4.32;;
11187;SDS011;5650;52.700;7.306;2024-02-21T14:02:04;6.97;;;3.78;;
11187;SDS011;5650;52.700;7.306;2024-02-21T14:04:36;6.78;;;3.85;;
11187;SDS011;5650;52.700;7.306;2024-02-21T14:07:03;8.57;;;3.78;;
11187;SDS011;5650;52.700;7.306;2024-02-21T14:09:30;8.52;;;3.90;;
11187;SDS011;5650;52.700;7.306;2024-02-21T14:11:58;10.43;;;3.75;;
11187;SDS011;5650;52.700;7.306;2024-02-21T14:14:26;8.15;;;3.80;;
11187;SDS011;5650;52.700;7.306;2024-02-21T14:16:53;10.02;;;3.88;;
11187;SDS011;5650;52.700;7.306;2024-02-21T14:19:21;7.50;;;3.55;;
11187;SDS011;5650;52.700;7.306;2024-02-21T14:21:49;8.32;;;3.42;;
11187;SDS011;5650;52.700;7.306;2024-02-21T14:24:16;35.17;;;23.95;;
11187;SDS011;5650;52.700;7.306;2024-02-21T14:26:43;15.25;;;8.73;;
11187;SDS011;5650;52.700;7.306;2024-02-21T14:29:10;12.07;;;4.10;;
11187;SDS011;5650;52.700;7.306;2024-02-21T14:31:39;9.30;;;4.25;;
11187;SDS011;5650;52.700;7.306;2024-02-21T14:34:06;16.35;;;3.95;;
11187;SDS011;5650;52.700;7.306;2024-02-21T14:36:33;12.23;;;3.88;;
11187;SDS011;5650;52.700;7.306;2024-02-21T14:39:00;14.02;;;6.90;;
11187;SDS011;5650;52.700;7.306;2024-02-21T14:41:28;18.60;;;9.52;;
11187;SDS011;5650;52.700;7.306;2024-02-21T14:43:55;8.52;;;4.25;;
11187;SDS011;5650;52.700;7.306;2024-02-21T14:46:25;13.88;;;8.15;;
11187;SDS011;5650;52.700;7.306;2024-02-21T14:48:54;12.15;;;5.20;;
11187;SDS011;5650;52.700;7.306;2024-02-21T14:51:22;11.88;;;3.40;;
11187;SDS011;5650;52.700;7.306;2024-02-21T14:53:49;10.40;;;5.15;;
11187;SDS011;5650;52.700;7.306;2024-02-21T14:56:16;13.52;;;5.95;;
11187;SDS011;5650;52.700;7.306;2024-02-21T14:58:43;9.25;;;4.78;;
11187;SDS011;5650;52.700;7.306;2024-02-21T15:01:13;13.55;;;5.97;;
11187;SDS011;5650;52.700;7.306;2024-02-21T15:03:41;11.00;;;4.47;;
11187;SDS011;5650;52.700;7.306;2024-02-21T15:06:10;8.85;;;4.20;;
11187;SDS011;5650;52.700;7.306;2024-02-21T15:08:37;8.85;;;3.83;;
11187;SDS011;5650;52.700;7.306;2024-02-21T15:11:04;11.15;;;4.63;;
11187;SDS011;5650;52.700;7.306;2024-02-21T15:13:32;11.45;;;4.28;;
11187;SDS011;5650;52.700;7.306;2024-02-21T15:16:00;10.55;;;4.68;;
11187;SDS011;5650;52.700;7.306;2024-02-21T15:18:27;12.90;;;4.53;;
11187;SDS011;5650;52.700;7.306;2024-02-21T15:20:58;8.80;;;4.30;;